createdAt,value
2018-01-28T00:00:08.420Z,4.70
2018-01-28T00:02:35.841Z,4.70
2018-01-28T00:05:03.260Z,4.80
2018-01-28T00:07:31.679Z,4.70
2018-01-28T00:09:59.163Z,4.70
2018-01-28T00:12:26.600Z,4.70
2018-01-28T00:14:54.126Z,4.70
2018-01-28T00:17:21.549Z,4.70
2018-01-28T00:19:49.082Z,4.80
2018-01-28T00:22:16.727Z,4.80
2018-01-28T00:24:44.292Z,4.80
2018-01-28T00:27:11.713Z,4.80
2018-01-28T00:29:39.138Z,4.80
2018-01-28T00:32:07.501Z,4.80
2018-01-28T00:34:34.961Z,4.90
2018-01-28T00:37:02.517Z,4.70
2018-01-28T00:39:29.944Z,4.80
2018-01-28T00:41:57.434Z,4.80
2018-01-28T00:44:25.069Z,4.80
2018-01-28T00:46:52.653Z,4.80
2018-01-28T00:49:20.119Z,4.90
2018-01-28T00:51:47.877Z,4.90
2018-01-28T00:54:15.297Z,4.90
2018-01-28T00:56:42.729Z,4.90
2018-01-28T00:59:10.146Z,5.00
2018-01-28T01:01:37.709Z,4.90
2018-01-28T01:04:05.135Z,5.00
2018-01-28T01:06:32.625Z,4.90
2018-01-28T01:09:00.051Z,4.90
2018-01-28T01:11:27.478Z,4.90
2018-01-28T01:13:54.923Z,5.00
2018-01-28T01:16:23.382Z,4.90
2018-01-28T01:18:50.824Z,5.00
2018-01-28T01:21:18.261Z,5.00
2018-01-28T01:23:45.688Z,5.00
2018-01-28T01:26:13.109Z,5.00
2018-01-28T01:28:40.605Z,5.20
2018-01-28T01:31:08.028Z,5.10
2018-01-28T01:33:35.453Z,5.10
2018-01-28T01:36:03.042Z,5.10
2018-01-28T01:38:30.673Z,5.10
2018-01-28T01:40:58.266Z,5.10
2018-01-28T01:43:25.897Z,5.30
2018-01-28T01:45:53.385Z,5.10
2018-01-28T01:48:20.816Z,5.20
2018-01-28T01:50:48.274Z,5.20
2018-01-28T01:53:15.857Z,5.10
2018-01-28T01:55:43.498Z,5.10
2018-01-28T01:58:10.980Z,5.20
2018-01-28T02:00:38.542Z,5.20
2018-01-28T02:03:05.969Z,5.20
2018-01-28T02:05:33.398Z,5.10
2018-01-28T02:08:00.821Z,5.20
2018-01-28T02:10:28.279Z,5.10
2018-01-28T02:12:55.825Z,5.20
2018-01-28T02:15:23.294Z,5.20
2018-01-28T02:17:50.921Z,5.20
2018-01-28T02:20:18.522Z,5.20
2018-01-28T02:22:45.957Z,5.20
2018-01-28T02:25:13.377Z,5.20
2018-01-28T02:27:40.889Z,5.20
2018-01-28T02:30:08.330Z,5.30
2018-01-28T02:32:35.758Z,5.30
2018-01-28T02:35:03.258Z,5.20
2018-01-28T02:37:31.030Z,5.30
2018-01-28T02:39:58.794Z,5.30
2018-01-28T02:42:26.219Z,5.40
2018-01-28T02:44:53.641Z,5.40
2018-01-28T02:47:21.073Z,5.40
2018-01-28T02:49:48.585Z,5.40
2018-01-28T02:52:16.014Z,5.40
2018-01-28T02:54:43.437Z,5.40
2018-01-28T02:57:10.931Z,5.40
2018-01-28T02:59:38.358Z,5.30
2018-01-28T03:02:05.810Z,5.50
2018-01-28T03:04:33.366Z,5.40
2018-01-28T03:07:00.797Z,5.50
2018-01-28T03:09:28.282Z,5.50
2018-01-28T03:11:55.713Z,5.50
2018-01-28T03:14:23.141Z,5.50
2018-01-28T03:16:50.570Z,5.60
2018-01-28T03:19:18.121Z,5.50
2018-01-28T03:21:45.765Z,5.50
2018-01-28T03:24:13.937Z,5.50
2018-01-28T03:26:41.362Z,5.50
2018-01-28T03:29:08.866Z,5.50
2018-01-28T03:31:36.825Z,5.60
2018-01-28T03:34:04.398Z,5.60
2018-01-28T03:36:32.033Z,5.60
2018-01-28T03:38:59.692Z,5.60
2018-01-28T03:41:27.120Z,5.60
2018-01-28T03:43:54.846Z,5.70
2018-01-28T03:46:22.278Z,5.70
2018-01-28T03:48:49.705Z,5.70
2018-01-28T03:51:17.134Z,5.70
2018-01-28T03:53:44.677Z,5.70
2018-01-28T03:56:12.241Z,5.80
2018-01-28T03:58:39.772Z,5.80
2018-01-28T04:01:07.226Z,5.80
2018-01-28T04:03:34.747Z,5.80
2018-01-28T04:06:02.273Z,5.80
2018-01-28T04:08:29.701Z,5.80
2018-01-28T04:10:57.133Z,5.80
2018-01-28T04:13:25.326Z,5.80
2018-01-28T04:15:52.750Z,5.80
2018-01-28T04:18:20.182Z,5.90
2018-01-28T04:20:47.609Z,5.90
2018-01-28T04:23:15.881Z,5.90
2018-01-28T04:25:43.375Z,6.10
2018-01-28T04:28:10.929Z,6.10
2018-01-28T04:30:38.627Z,6.00
2018-01-28T04:33:06.057Z,5.90
2018-01-28T04:35:33.513Z,5.90
2018-01-28T04:38:01.068Z,5.90
2018-01-28T04:40:28.701Z,5.90
2018-01-28T04:42:56.289Z,6.00
2018-01-28T04:45:23.925Z,6.10
2018-01-28T04:47:51.513Z,6.00
2018-01-28T04:50:18.941Z,6.00
2018-01-28T04:52:46.433Z,6.00
2018-01-28T04:55:13.858Z,6.00
2018-01-28T04:57:41.281Z,6.00
2018-01-28T05:00:08.710Z,6.10
2018-01-28T05:02:36.170Z,6.10
2018-01-28T05:05:03.910Z,6.10
2018-01-28T05:07:31.418Z,6.10
2018-01-28T05:09:58.841Z,6.10
2018-01-28T05:12:26.269Z,6.20
2018-01-28T05:14:53.861Z,6.20
2018-01-28T05:17:21.621Z,6.20
2018-01-28T05:19:49.050Z,6.20
2018-01-28T05:22:16.477Z,6.20
2018-01-28T05:24:43.901Z,6.20
2018-01-28T05:27:11.326Z,6.20
2018-01-28T05:29:38.909Z,6.40
2018-01-28T05:32:06.672Z,6.30
2018-01-28T05:34:34.105Z,6.30
2018-01-28T05:37:01.530Z,6.30
2018-01-28T05:39:29.053Z,6.30
2018-01-28T05:41:56.510Z,6.40
2018-01-28T05:44:24.142Z,6.40
2018-01-28T05:46:51.634Z,6.40
2018-01-28T05:49:19.090Z,6.50
2018-01-28T05:51:46.645Z,6.30
2018-01-28T05:54:14.108Z,6.40
2018-01-28T05:56:41.873Z,6.40
2018-01-28T05:59:09.634Z,6.40
2018-01-28T06:01:37.093Z,6.40
2018-01-28T06:04:04.725Z,6.50
2018-01-28T06:06:32.216Z,6.50
2018-01-28T06:08:59.862Z,6.50
2018-01-28T06:11:27.538Z,6.50
2018-01-28T06:13:55.173Z,6.50
2018-01-28T06:16:22.761Z,6.50
2018-01-28T06:18:50.398Z,6.60
2018-01-28T06:21:17.825Z,6.60
2018-01-28T06:23:45.346Z,6.60
2018-01-28T06:26:13.091Z,6.60
2018-01-28T06:28:40.573Z,6.60
2018-01-28T06:31:07.997Z,6.60
2018-01-28T06:33:35.490Z,6.60
2018-01-28T06:36:02.941Z,6.60
2018-01-28T06:38:30.410Z,6.70
2018-01-28T06:40:57.837Z,6.60
2018-01-28T06:43:25.317Z,6.60
2018-01-28T06:45:52.734Z,6.70
2018-01-28T06:48:20.330Z,6.70
2018-01-28T06:50:48.097Z,6.80
2018-01-28T06:53:15.522Z,6.70
2018-01-28T06:55:43.009Z,6.70
2018-01-28T06:58:10.442Z,6.70
2018-01-28T07:00:37.873Z,6.70
2018-01-28T07:03:05.381Z,6.70
2018-01-28T07:05:32.837Z,6.70
2018-01-28T07:08:00.478Z,6.70
2018-01-28T07:10:27.933Z,6.80
2018-01-28T07:12:55.426Z,6.70
2018-01-28T07:15:22.853Z,6.90
2018-01-28T07:17:50.343Z,6.80
2018-01-28T07:20:25.578Z,6.70
2018-01-28T07:22:53.029Z,6.80
2018-01-28T07:25:20.490Z,6.80
2018-01-28T07:27:47.924Z,6.80
2018-01-28T07:30:15.409Z,6.80
2018-01-28T07:32:42.866Z,6.80
2018-01-28T07:35:10.498Z,6.80
2018-01-28T07:37:37.989Z,6.90
2018-01-28T07:40:05.514Z,6.90
2018-01-28T07:42:32.937Z,6.90
2018-01-28T07:45:00.365Z,6.90
2018-01-28T07:47:27.921Z,6.90
2018-01-28T07:49:55.549Z,6.90
2018-01-28T07:52:23.150Z,7.00
2018-01-28T07:54:50.579Z,7.00
2018-01-28T07:57:18.005Z,7.00
2018-01-28T07:59:45.436Z,7.00
2018-01-28T08:02:12.865Z,7.00
2018-01-28T08:04:40.369Z,7.10
2018-01-28T08:07:07.806Z,7.10
2018-01-28T08:09:37.669Z,7.10
2018-01-28T08:12:07.941Z,7.10
2018-01-28T08:14:37.293Z,7.10
2018-01-28T08:17:04.725Z,7.20
2018-01-28T08:19:32.153Z,7.20
2018-01-28T08:21:59.602Z,7.20
2018-01-28T08:24:27.061Z,7.30
2018-01-28T08:26:56.393Z,7.20
2018-01-28T08:29:24.733Z,7.40
2018-01-28T08:31:52.179Z,7.30
2018-01-28T08:34:19.622Z,7.30
2018-01-28T08:36:47.121Z,7.30
2018-01-28T08:39:14.570Z,7.40
2018-01-28T08:41:42.133Z,7.40
2018-01-28T08:44:09.562Z,7.50
2018-01-28T08:46:37.000Z,7.50
2018-01-28T08:49:04.429Z,7.60
2018-01-28T08:51:31.957Z,7.60
2018-01-28T08:53:59.385Z,7.70
2018-01-28T08:56:26.824Z,7.70
2018-01-28T08:58:54.250Z,7.70
2018-01-28T09:01:21.914Z,7.80
2018-01-28T09:03:49.425Z,7.80
2018-01-28T09:06:16.862Z,7.80
2018-01-28T09:08:45.266Z,7.90
2018-01-28T09:11:12.789Z,7.90
2018-01-28T09:13:40.313Z,7.90
2018-01-28T09:16:07.941Z,8.00
2018-01-28T09:18:35.442Z,8.00
2018-01-28T09:21:02.870Z,8.10
2018-01-28T09:23:30.361Z,8.00
2018-01-28T09:25:57.793Z,8.20
2018-01-28T09:28:25.275Z,8.20
2018-01-28T09:30:52.704Z,8.20
2018-01-28T09:33:20.161Z,8.20
2018-01-28T09:35:47.737Z,8.20
2018-01-28T09:38:15.505Z,8.30
2018-01-28T09:40:43.141Z,8.30
2018-01-28T09:43:10.598Z,8.20
2018-01-28T09:45:38.185Z,8.30
2018-01-28T09:48:05.642Z,8.20
2018-01-28T09:50:33.069Z,8.20
2018-01-28T09:53:00.513Z,8.30
2018-01-28T09:55:28.014Z,8.30
2018-01-28T09:57:55.461Z,8.30
2018-01-28T10:00:22.889Z,8.30
2018-01-28T10:02:50.325Z,8.40
2018-01-28T10:05:17.849Z,8.30
2018-01-28T10:07:45.306Z,8.40
2018-01-28T10:10:12.766Z,8.40
2018-01-28T10:12:40.529Z,8.50
2018-01-28T10:15:08.065Z,8.50
2018-01-28T10:17:35.638Z,8.40
2018-01-28T10:20:03.109Z,8.60
2018-01-28T10:22:30.671Z,8.70
2018-01-28T10:24:58.101Z,8.70
2018-01-28T10:27:25.549Z,8.60
2018-01-28T10:29:52.977Z,8.70
2018-01-28T10:32:20.497Z,8.70
2018-01-28T10:34:48.265Z,8.70
2018-01-28T10:37:15.701Z,8.70
2018-01-28T10:39:43.184Z,8.80
2018-01-28T10:42:10.639Z,8.80
2018-01-28T10:44:38.286Z,8.80
2018-01-28T10:47:05.722Z,8.90
2018-01-28T10:49:33.317Z,9.00
2018-01-28T10:52:00.757Z,9.00
2018-01-28T10:54:28.189Z,9.00
2018-01-28T10:56:55.624Z,9.10
2018-01-28T10:59:23.065Z,9.30
2018-01-28T11:01:50.610Z,9.30
2018-01-28T11:04:18.069Z,9.40
2018-01-28T11:06:45.698Z,9.40
2018-01-28T11:09:13.207Z,9.50
2018-01-28T11:11:40.745Z,9.50
2018-01-28T11:14:08.510Z,9.60
2018-01-28T11:16:36.160Z,9.70
2018-01-28T11:19:03.683Z,9.80
2018-01-28T11:21:31.121Z,9.70
2018-01-28T11:23:58.651Z,9.80
2018-01-28T11:26:26.086Z,9.80
2018-01-28T11:28:53.532Z,9.90
2018-01-28T11:31:21.022Z,9.90
2018-01-28T11:33:48.466Z,9.90
2018-01-28T11:36:15.898Z,9.90
2018-01-28T11:38:43.345Z,9.90
2018-01-28T11:41:10.854Z,9.90
2018-01-28T11:43:38.317Z,10.00
2018-01-28T11:46:05.945Z,10.00
2018-01-28T11:48:33.453Z,10.00
2018-01-28T11:51:00.898Z,10.10
2018-01-28T11:53:28.453Z,10.20
2018-01-28T11:55:55.912Z,10.20
2018-01-28T11:58:23.355Z,10.30
2018-01-28T12:00:50.798Z,10.40
2018-01-28T12:03:18.237Z,10.60
2018-01-28T12:05:45.746Z,10.70
2018-01-28T12:08:13.506Z,10.60
2018-01-28T12:10:41.273Z,10.70
2018-01-28T12:13:09.042Z,10.80
2018-01-28T12:15:36.802Z,10.80
2018-01-28T12:18:04.565Z,10.90
2018-01-28T12:20:32.133Z,10.80
2018-01-28T12:22:59.690Z,10.70
2018-01-28T12:25:27.325Z,10.70
2018-01-28T12:27:54.770Z,10.70
2018-01-28T12:30:22.469Z,10.80
2018-01-28T12:32:50.107Z,10.90
2018-01-28T12:35:17.557Z,10.90
2018-01-28T12:37:45.090Z,10.80
2018-01-28T12:40:12.529Z,11.00
2018-01-28T12:42:39.977Z,11.20
2018-01-28T12:45:07.527Z,11.20
2018-01-28T12:47:35.293Z,11.50
2018-01-28T12:50:02.755Z,11.50
2018-01-28T12:52:30.191Z,11.40
2018-01-28T12:54:57.633Z,11.20
2018-01-28T12:57:25.067Z,11.20
2018-01-28T12:59:52.580Z,11.20
2018-01-28T13:02:20.037Z,11.40
2018-01-28T13:04:47.481Z,11.30
2018-01-28T13:07:14.924Z,11.20
2018-01-28T13:09:42.669Z,11.20
2018-01-28T13:12:10.109Z,11.20
2018-01-28T13:14:37.633Z,11.20
2018-01-28T13:17:05.402Z,11.20
2018-01-28T13:19:32.842Z,11.10
2018-01-28T13:22:00.269Z,11.10
2018-01-28T13:24:27.776Z,11.10
2018-01-28T13:26:55.414Z,11.10
2018-01-28T13:29:22.867Z,11.10
2018-01-28T13:31:50.342Z,11.00
2018-01-28T13:34:17.823Z,10.80
2018-01-28T13:36:45.266Z,10.90
2018-01-28T13:39:12.826Z,11.20
2018-01-28T13:41:40.365Z,11.30
2018-01-28T13:44:08.049Z,11.20
2018-01-28T13:46:35.699Z,11.10
2018-01-28T13:49:03.179Z,11.00
2018-01-28T13:51:30.733Z,11.00
2018-01-28T13:53:58.365Z,10.90
2018-01-28T13:56:25.870Z,10.90
2018-01-28T13:58:53.312Z,10.80
2018-01-28T14:01:20.874Z,10.90
2018-01-28T14:03:48.312Z,10.80
2018-01-28T14:06:16.093Z,10.90
2018-01-28T14:08:43.528Z,10.90
2018-01-28T14:11:11.257Z,10.90
2018-01-28T14:13:38.693Z,10.70
2018-01-28T14:16:06.297Z,10.60
2018-01-28T14:18:33.912Z,10.60
2018-01-28T14:21:01.374Z,10.60
2018-01-28T14:23:28.814Z,10.60
2018-01-28T14:25:56.377Z,10.60
2018-01-28T14:28:24.021Z,10.50
2018-01-28T14:30:51.513Z,10.50
2018-01-28T14:33:19.882Z,10.40
2018-01-28T14:35:47.433Z,10.40
2018-01-28T14:38:14.878Z,10.40
2018-01-28T14:40:42.321Z,10.40
2018-01-28T14:43:09.757Z,10.40
2018-01-28T14:45:37.205Z,10.40
2018-01-28T14:48:04.635Z,10.40
2018-01-28T14:50:32.082Z,10.40
2018-01-28T14:52:59.541Z,10.40
2018-01-28T14:55:26.999Z,10.40
2018-01-28T14:57:54.477Z,10.50
2018-01-28T15:00:22.009Z,10.40
2018-01-28T15:02:49.450Z,10.30
2018-01-28T15:05:16.932Z,10.30
2018-01-28T15:07:44.577Z,10.30
2018-01-28T15:10:12.149Z,10.30
2018-01-28T15:12:39.599Z,10.30
2018-01-28T15:15:07.304Z,10.30
2018-01-28T15:17:34.829Z,10.30
2018-01-28T15:20:02.289Z,10.20
2018-01-28T15:22:29.937Z,10.30
2018-01-28T15:24:57.367Z,10.30
2018-01-28T15:27:24.970Z,10.20
2018-01-28T15:29:52.410Z,10.20
2018-01-28T15:32:19.851Z,10.30
2018-01-28T15:34:47.289Z,10.30
2018-01-28T15:37:14.801Z,10.40
2018-01-28T15:39:42.451Z,10.40
2018-01-28T15:42:09.878Z,10.40
2018-01-28T15:44:37.483Z,10.40
2018-01-28T15:47:05.245Z,10.50
2018-01-28T15:49:32.885Z,10.40
2018-01-28T15:52:00.413Z,10.40
2018-01-28T15:54:27.855Z,10.50
2018-01-28T15:56:55.386Z,10.40
2018-01-28T15:59:23.030Z,10.40
2018-01-28T16:01:50.523Z,10.40
2018-01-28T16:04:17.969Z,10.40
2018-01-28T16:06:45.530Z,10.40
2018-01-28T16:09:12.982Z,10.30
2018-01-28T16:11:40.426Z,10.40
2018-01-28T16:14:07.898Z,10.40
2018-01-28T16:16:35.361Z,10.40
2018-01-28T16:19:03.004Z,10.30
2018-01-28T16:21:30.717Z,10.30
2018-01-28T16:23:58.258Z,10.30
2018-01-28T16:26:25.802Z,10.30
2018-01-28T16:28:53.261Z,10.20
2018-01-28T16:31:20.718Z,10.20
2018-01-28T16:33:48.181Z,10.30
2018-01-28T16:36:15.626Z,10.20
2018-01-28T16:38:43.349Z,10.30
2018-01-28T16:41:10.857Z,10.30
2018-01-28T16:43:38.302Z,10.20
2018-01-28T16:46:06.086Z,10.30
2018-01-28T16:48:33.729Z,10.30
2018-01-28T16:51:01.304Z,10.30
2018-01-28T16:53:28.760Z,10.30
2018-01-28T16:55:56.361Z,10.30
2018-01-28T16:58:23.989Z,10.30
2018-01-28T17:00:51.418Z,10.40
2018-01-28T17:03:18.901Z,10.30
2018-01-28T17:05:46.538Z,10.40
2018-01-28T17:08:14.123Z,10.40
2018-01-28T17:10:41.888Z,10.40
2018-01-28T17:13:09.337Z,10.40
2018-01-28T17:15:37.111Z,10.40
2018-01-28T17:18:04.564Z,10.40
2018-01-28T17:20:32.414Z,10.40
2018-01-28T17:23:00.300Z,10.40
2018-01-28T17:25:27.814Z,10.40
2018-01-28T17:27:56.021Z,10.40
2018-01-28T17:30:23.705Z,10.40
2018-01-28T17:32:51.337Z,10.40
2018-01-28T17:35:24.421Z,10.40
2018-01-28T17:37:51.869Z,10.40
2018-01-28T17:40:19.309Z,10.40
2018-01-28T17:42:46.774Z,10.40
2018-01-28T17:45:14.209Z,10.40
2018-01-28T17:47:41.745Z,10.40
2018-01-28T17:50:09.513Z,10.50
2018-01-28T17:52:36.973Z,10.40
2018-01-28T17:55:04.417Z,10.50
2018-01-28T17:57:32.062Z,10.50
2018-01-28T17:59:59.645Z,10.40
2018-01-28T18:02:27.096Z,10.50
2018-01-28T18:04:54.533Z,10.50
2018-01-28T18:07:22.024Z,10.50
2018-01-28T18:09:49.785Z,10.50
2018-01-28T18:12:17.279Z,10.50
2018-01-28T18:14:44.689Z,10.50
2018-01-28T18:17:12.162Z,10.50
2018-01-28T18:19:39.617Z,10.50
2018-01-28T18:22:07.064Z,10.50
2018-01-28T18:24:34.841Z,10.50
2018-01-28T18:27:02.487Z,10.50
2018-01-28T18:29:29.977Z,10.50
2018-01-28T18:31:57.428Z,10.50
2018-01-28T18:34:24.869Z,10.50
2018-01-28T18:36:52.424Z,10.50
2018-01-28T18:39:19.902Z,10.50
2018-01-28T18:41:47.665Z,10.50
2018-01-28T18:44:15.126Z,10.50
2018-01-28T18:46:42.890Z,10.50
2018-01-28T18:49:10.330Z,10.50
2018-01-28T18:51:37.775Z,10.60
2018-01-28T18:54:05.257Z,10.50
2018-01-28T18:56:33.030Z,10.50
2018-01-28T18:59:00.753Z,10.50
2018-01-28T19:01:28.553Z,10.50
2018-01-28T19:03:56.190Z,10.50
2018-01-28T19:06:23.781Z,10.50
2018-01-28T19:08:51.222Z,10.50
2018-01-28T19:11:18.982Z,10.50
2018-01-28T19:13:46.714Z,10.50
2018-01-28T19:16:14.154Z,10.50
2018-01-28T19:18:41.689Z,10.50
2018-01-28T19:21:09.449Z,10.50
2018-01-28T19:23:37.403Z,10.50
2018-01-28T19:26:04.825Z,10.50
2018-01-28T19:28:33.357Z,10.40
2018-01-28T19:31:00.990Z,10.40
2018-01-28T19:33:28.461Z,10.40
2018-01-28T19:35:56.042Z,10.50
2018-01-28T19:38:23.801Z,10.40
2018-01-28T19:40:51.265Z,10.40
2018-01-28T19:43:18.908Z,10.40
2018-01-28T19:45:46.486Z,10.40
2018-01-28T19:48:14.246Z,10.40
2018-01-28T19:50:41.884Z,10.40
2018-01-28T19:53:09.473Z,10.40
2018-01-28T19:55:36.929Z,10.40
2018-01-28T19:58:04.373Z,10.40
2018-01-28T20:00:32.021Z,10.40
2018-01-28T20:02:59.493Z,10.40
2018-01-28T20:05:26.929Z,10.50
2018-01-28T20:07:54.465Z,10.40
2018-01-28T20:10:21.981Z,10.30
2018-01-28T20:12:49.477Z,10.50
2018-01-28T20:15:16.901Z,10.40
2018-01-28T20:17:44.349Z,10.40
2018-01-28T20:20:11.773Z,10.40
2018-01-28T20:22:39.218Z,10.50
2018-01-28T20:25:07.649Z,10.30
2018-01-28T20:27:35.298Z,10.40
2018-01-28T20:30:02.748Z,10.40
2018-01-28T20:32:30.330Z,10.50
2018-01-28T20:34:57.969Z,10.50
2018-01-28T20:37:25.417Z,10.40
2018-01-28T20:39:53.013Z,10.50
2018-01-28T20:42:20.469Z,10.40
2018-01-28T20:44:47.933Z,10.40
2018-01-28T20:47:15.566Z,10.40
2018-01-28T20:49:43.152Z,10.40
2018-01-28T20:52:10.589Z,10.50
2018-01-28T20:54:38.075Z,10.40
2018-01-28T20:57:05.501Z,10.40
2018-01-28T20:59:32.951Z,10.40
2018-01-28T21:02:00.441Z,10.60
2018-01-28T21:04:28.086Z,10.40
2018-01-28T21:06:55.568Z,10.40
2018-01-28T21:09:23.181Z,10.40
2018-01-28T21:11:50.889Z,10.40
2018-01-28T21:14:18.334Z,10.40
2018-01-28T21:16:45.981Z,10.40
2018-01-28T21:19:13.441Z,10.40
2018-01-28T21:21:40.897Z,10.20
2018-01-28T21:24:08.403Z,10.30
2018-01-28T21:26:36.052Z,10.30
2018-01-28T21:29:03.601Z,10.30
2018-01-28T21:31:31.173Z,10.40
2018-01-28T21:33:58.811Z,10.30
2018-01-28T21:36:26.286Z,10.30
2018-01-28T21:38:53.763Z,10.20
2018-01-28T21:41:21.205Z,10.30
2018-01-28T21:43:48.670Z,10.30
2018-01-28T21:46:16.105Z,10.30
2018-01-28T21:48:43.697Z,10.30
2018-01-28T21:51:11.314Z,10.30
2018-01-28T21:53:38.813Z,10.30
2018-01-28T21:56:07.278Z,10.30
2018-01-28T21:58:34.822Z,10.30
2018-01-28T22:01:02.406Z,10.30
2018-01-28T22:03:29.869Z,10.30
2018-01-28T22:05:57.319Z,10.30
2018-01-28T22:08:24.794Z,10.20
2018-01-28T22:10:52.233Z,10.40
2018-01-28T22:13:19.793Z,10.20
2018-01-28T22:15:47.251Z,10.30
2018-01-28T22:18:14.889Z,10.20
2018-01-28T22:20:42.379Z,10.20
2018-01-28T22:23:09.933Z,10.20
2018-01-28T22:25:37.386Z,10.20
2018-01-28T22:28:04.837Z,10.30
2018-01-28T22:30:32.274Z,10.20
2018-01-28T22:32:59.713Z,10.20
2018-01-28T22:35:27.221Z,10.20
2018-01-28T22:37:54.990Z,10.20
2018-01-28T22:40:22.430Z,10.20
2018-01-28T22:42:49.901Z,10.30
2018-01-28T22:45:17.669Z,10.20
2018-01-28T22:47:45.435Z,10.20
2018-01-28T22:50:13.082Z,10.20
2018-01-28T22:52:40.518Z,10.20
2018-01-28T22:55:08.029Z,10.20
2018-01-28T22:57:35.573Z,10.20
2018-01-28T23:00:03.339Z,10.20
2018-01-28T23:02:30.882Z,10.10
2018-01-28T23:04:58.463Z,10.10
2018-01-28T23:07:25.917Z,10.10
2018-01-28T23:09:53.364Z,10.20
2018-01-28T23:12:20.933Z,10.10
2018-01-28T23:14:48.703Z,10.10
2018-01-28T23:17:16.466Z,10.10
2018-01-28T23:19:43.909Z,10.10
2018-01-28T23:22:11.379Z,10.10
2018-01-28T23:24:38.827Z,10.10
2018-01-28T23:27:06.601Z,10.10
2018-01-28T23:29:34.255Z,10.10
2018-01-28T23:32:01.726Z,10.10
2018-01-28T23:34:29.285Z,10.10
2018-01-28T23:36:56.727Z,10.10
2018-01-28T23:39:24.170Z,10.10
2018-01-28T23:41:51.601Z,10.10
2018-01-28T23:44:19.048Z,10.10
2018-01-28T23:46:46.578Z,10.10
2018-01-28T23:49:14.031Z,10.00
2018-01-28T23:51:41.495Z,10.00
2018-01-28T23:54:09.126Z,10.00
2018-01-28T23:56:36.591Z,9.90
2018-01-28T23:59:04.042Z,9.90
